< Cyclone 198301 1983 Season Cyclone 198303 >
Cyclone 198302 (DES)
General InformationTrack Information on Google MapsList of All Images || ResourceGoogle EarthGE AnimationAtom FeedGeoJSON
Detalied Best Track (Time Zone = UTC)
Year Month Day Hour Lat. Long. Pressure (hPa) Wind (kt) Class Image Chart
1983 1 14 12 -16.2 146.9 1004 0 0 Image --
1983 1 14 15 -16.2 146.9 1003 0 0 Image --
1983 1 14 18 -16.3 147.0 1003 0 0 Image --
1983 1 14 21 -16.4 147.2 1002 0 0 Image --
1983 1 15 00 -16.5 147.3 1002 0 0 Image --
1983 1 15 03 -16.4 147.8 1002 0 0 Image --
1983 1 15 06 -16.3 148.4 1000 0 0 Image --
1983 1 15 09 -16.4 148.9 1000 0 0 Image --
1983 1 15 12 -16.6 149.5 1001 0 0 Image --
1983 1 15 18 -17.2 150.4 999 0 0 Image --
1983 1 16 00 -17.7 151.6 1000 0 0 Image --
1983 1 16 06 -18.4 152.7 996 0 0 Image --
1983 1 16 12 -18.7 153.3 996 0 0 Image --
1983 1 16 18 -19.0 154.0 996 0 0 Image --
1983 1 17 00 -19.1 154.7 996 0 0 Image --
1983 1 17 06 -19.1 155.3 996 0 0 Image --
1983 1 17 12 -19.6 156.0 994 0 0 Image --
1983 1 17 18 -20.9 156.2 994 0 0 Image --
1983 1 18 00 -22.0 156.7 995 0 0 Image --
1983 1 18 06 -22.5 157.3 995 0 0 Image --
1983 1 18 12 -22.2 158.0 995 0 0 Image --
1983 1 18 18 -21.4 158.1 997 0 0 Image --
1983 1 19 00 -20.6 157.9 998 0 0 Image --
1983 1 19 06 -20.1 158.0 998 0 0 Image --
1983 1 19 12 -19.6 157.7 998 0 0 Image --
1983 1 19 18 -18.8 157.1 998 0 0 Image --
1983 1 20 00 -17.7 156.8 999 0 0 Image --
1983 1 20 06 -16.9 156.0 1000 0 0 Image --
1983 1 20 12 -16.3 155.8 1001 0 0 Image --
1983 1 20 18 -16.0 155.7 1001 0 0 Image --
1983 1 21 00 -15.2 155.5 1001 0 0 Image --
1983 1 21 06 -14.6 154.8 1000 0 0 Image --
1983 1 21 12 -14.2 154.7 1000 0 0 Image --
1983 1 21 18 -13.8 154.6 1000 0 0 Image --
1983 1 22 00 -13.5 154.3 1002 0 0 Image --
1983 1 22 06 -13.2 154.2 1003 0 0 Image --
1983 1 22 12 -12.9 154.8 1005 0 0 Image --
1983 1 22 18 -13.0 155.9 1005 0 0 Image --
1983 1 23 00 -13.4 157.0 1005 0 0 Image --
< Cyclone 198301 1983 Season Cyclone 198303 >

Help